sensor_id;sensor_type;location;lat;lon;timestamp;P1;durP1;ratioP1;P2;durP2;ratioP2
80625;SDS011;69982;51.758;5.784;2023-06-14T00:00:30;7.80;;;2.40;;
80625;SDS011;69982;51.758;5.784;2023-06-14T00:03:17;5.70;;;2.40;;
80625;SDS011;69982;51.758;5.784;2023-06-14T00:05:44;9.00;;;2.60;;
80625;SDS011;69982;51.758;5.784;2023-06-14T00:08:12;5.20;;;2.20;;
80625;SDS011;69982;51.758;5.784;2023-06-14T00:10:39;7.30;;;2.50;;
80625;SDS011;69982;51.758;5.784;2023-06-14T00:13:09;8.00;;;2.40;;
80625;SDS011;69982;51.758;5.784;2023-06-14T00:15:36;5.50;;;2.60;;
80625;SDS011;69982;51.758;5.784;2023-06-14T00:18:03;8.10;;;2.50;;
80625;SDS011;69982;51.758;5.784;2023-06-14T00:20:30;6.80;;;2.70;;
80625;SDS011;69982;51.758;5.784;2023-06-14T00:22:59;6.70;;;2.40;;
80625;SDS011;69982;51.758;5.784;2023-06-14T00:25:26;6.10;;;2.40;;
80625;SDS011;69982;51.758;5.784;2023-06-14T00:27:54;7.20;;;2.20;;
80625;SDS011;69982;51.758;5.784;2023-06-14T00:30:21;6.50;;;2.30;;
80625;SDS011;69982;51.758;5.784;2023-06-14T00:32:48;4.90;;;2.10;;
80625;SDS011;69982;51.758;5.784;2023-06-14T00:35:14;7.80;;;2.30;;
80625;SDS011;69982;51.758;5.784;2023-06-14T00:37:41;6.60;;;2.20;;
80625;SDS011;69982;51.758;5.784;2023-06-14T00:40:08;5.10;;;2.10;;
80625;SDS011;69982;51.758;5.784;2023-06-14T00:42:34;6.70;;;2.30;;
80625;SDS011;69982;51.758;5.784;2023-06-14T00:45:00;6.10;;;2.20;;
80625;SDS011;69982;51.758;5.784;2023-06-14T00:47:27;6.10;;;2.40;;
80625;SDS011;69982;51.758;5.784;2023-06-14T00:49:53;5.20;;;2.40;;
80625;SDS011;69982;51.758;5.784;2023-06-14T00:52:22;9.40;;;2.50;;
80625;SDS011;69982;51.758;5.784;2023-06-14T00:54:50;6.30;;;2.30;;
80625;SDS011;69982;51.758;5.784;2023-06-14T00:57:16;5.80;;;2.40;;
80625;SDS011;69982;51.758;5.784;2023-06-14T00:59:44;9.40;;;2.60;;
80625;SDS011;69982;51.758;5.784;2023-06-14T01:02:12;6.20;;;2.10;;
80625;SDS011;69982;51.758;5.784;2023-06-14T01:04:41;10.00;;;2.60;;
80625;SDS011;69982;51.758;5.784;2023-06-14T01:07:12;6.40;;;2.40;;
80625;SDS011;69982;51.758;5.784;2023-06-14T01:15:27;7.80;;;2.00;;
80625;SDS011;69982;51.758;5.784;2023-06-14T01:17:57;6.30;;;2.20;;
80625;SDS011;69982;51.758;5.784;2023-06-14T01:20:29;5.90;;;2.50;;
80625;SDS011;69982;51.758;5.784;2023-06-14T01:22:58;4.40;;;2.20;;
80625;SDS011;69982;51.758;5.784;2023-06-14T01:25:25;7.70;;;2.30;;
80625;SDS011;69982;51.758;5.784;2023-06-14T01:27:53;6.10;;;2.20;;
80625;SDS011;69982;51.758;5.784;2023-06-14T01:30:23;9.40;;;2.30;;
80625;SDS011;69982;51.758;5.784;2023-06-14T01:32:54;6.90;;;2.20;;
80625;SDS011;69982;51.758;5.784;2023-06-14T01:35:22;5.30;;;2.20;;
80625;SDS011;69982;51.758;5.784;2023-06-14T01:37:48;10.40;;;2.40;;
80625;SDS011;69982;51.758;5.784;2023-06-14T01:40:16;6.90;;;2.20;;
80625;SDS011;69982;51.758;5.784;2023-06-14T01:42:44;7.60;;;2.00;;
80625;SDS011;69982;51.758;5.784;2023-06-14T01:45:12;5.50;;;2.60;;
80625;SDS011;69982;51.758;5.784;2023-06-14T01:47:40;6.40;;;2.10;;
80625;SDS011;69982;51.758;5.784;2023-06-14T01:50:06;6.80;;;2.60;;
80625;SDS011;69982;51.758;5.784;2023-06-14T01:52:33;8.20;;;2.40;;
80625;SDS011;69982;51.758;5.784;2023-06-14T01:55:00;6.90;;;2.20;;
80625;SDS011;69982;51.758;5.784;2023-06-14T01:57:31;8.00;;;2.10;;
80625;SDS011;69982;51.758;5.784;2023-06-14T01:59:58;5.30;;;2.30;;
80625;SDS011;69982;51.758;5.784;2023-06-14T02:02:24;6.40;;;2.40;;
80625;SDS011;69982;51.758;5.784;2023-06-14T02:04:50;8.70;;;2.30;;
80625;SDS011;69982;51.758;5.784;2023-06-14T02:07:16;8.20;;;2.20;;
80625;SDS011;69982;51.758;5.784;2023-06-14T02:09:42;8.40;;;2.30;;
80625;SDS011;69982;51.758;5.784;2023-06-14T02:12:09;5.00;;;2.20;;
80625;SDS011;69982;51.758;5.784;2023-06-14T02:14:36;7.00;;;2.60;;
80625;SDS011;69982;51.758;5.784;2023-06-14T02:17:05;7.20;;;2.30;;
80625;SDS011;69982;51.758;5.784;2023-06-14T02:19:32;5.60;;;2.40;;
80625;SDS011;69982;51.758;5.784;2023-06-14T02:21:59;6.00;;;2.20;;
80625;SDS011;69982;51.758;5.784;2023-06-14T02:24:26;5.40;;;2.20;;
80625;SDS011;69982;51.758;5.784;2023-06-14T02:26:52;7.90;;;2.30;;
80625;SDS011;69982;51.758;5.784;2023-06-14T02:29:19;4.90;;;2.20;;
80625;SDS011;69982;51.758;5.784;2023-06-14T02:31:45;4.70;;;2.20;;
80625;SDS011;69982;51.758;5.784;2023-06-14T02:34:12;4.20;;;1.90;;
80625;SDS011;69982;51.758;5.784;2023-06-14T02:36:39;7.00;;;2.20;;
80625;SDS011;69982;51.758;5.784;2023-06-14T02:39:07;6.80;;;2.30;;
80625;SDS011;69982;51.758;5.784;2023-06-14T02:41:37;7.70;;;2.60;;
80625;SDS011;69982;51.758;5.784;2023-06-14T02:44:04;4.90;;;2.00;;
80625;SDS011;69982;51.758;5.784;2023-06-14T02:46:32;6.20;;;2.20;;
80625;SDS011;69982;51.758;5.784;2023-06-14T02:48:59;6.40;;;2.20;;
80625;SDS011;69982;51.758;5.784;2023-06-14T02:51:26;6.20;;;2.30;;
80625;SDS011;69982;51.758;5.784;2023-06-14T02:53:52;6.60;;;2.10;;
80625;SDS011;69982;51.758;5.784;2023-06-14T02:56:19;6.30;;;2.20;;
80625;SDS011;69982;51.758;5.784;2023-06-14T02:58:45;6.50;;;2.20;;
80625;SDS011;69982;51.758;5.784;2023-06-14T03:01:12;6.70;;;2.20;;
80625;SDS011;69982;51.758;5.784;2023-06-14T03:03:38;6.50;;;2.20;;
80625;SDS011;69982;51.758;5.784;2023-06-14T03:06:05;7.30;;;2.50;;
80625;SDS011;69982;51.758;5.784;2023-06-14T03:08:31;7.20;;;2.30;;
80625;SDS011;69982;51.758;5.784;2023-06-14T03:11:04;4.50;;;2.00;;
80625;SDS011;69982;51.758;5.784;2023-06-14T03:13:31;4.50;;;1.90;;
80625;SDS011;69982;51.758;5.784;2023-06-14T03:15:58;5.50;;;2.40;;
80625;SDS011;69982;51.758;5.784;2023-06-14T03:18:24;7.50;;;2.20;;
80625;SDS011;69982;51.758;5.784;2023-06-14T03:20:52;8.30;;;2.30;;
80625;SDS011;69982;51.758;5.784;2023-06-14T03:23:20;5.50;;;2.20;;
80625;SDS011;69982;51.758;5.784;2023-06-14T03:25:47;6.10;;;2.30;;
80625;SDS011;69982;51.758;5.784;2023-06-14T03:28:13;5.80;;;2.10;;
80625;SDS011;69982;51.758;5.784;2023-06-14T03:30:40;5.60;;;2.00;;
80625;SDS011;69982;51.758;5.784;2023-06-14T03:33:06;7.00;;;2.20;;
80625;SDS011;69982;51.758;5.784;2023-06-14T03:35:32;7.10;;;2.70;;
80625;SDS011;69982;51.758;5.784;2023-06-14T03:37:59;5.50;;;2.20;;
80625;SDS011;69982;51.758;5.784;2023-06-14T03:40:25;5.50;;;1.80;;
80625;SDS011;69982;51.758;5.784;2023-06-14T03:42:53;5.10;;;2.00;;
80625;SDS011;69982;51.758;5.784;2023-06-14T03:45:21;6.10;;;2.50;;
80625;SDS011;69982;51.758;5.784;2023-06-14T03:47:47;6.60;;;2.30;;
80625;SDS011;69982;51.758;5.784;2023-06-14T03:50:14;5.00;;;2.30;;
80625;SDS011;69982;51.758;5.784;2023-06-14T03:52:41;10.60;;;2.20;;
80625;SDS011;69982;51.758;5.784;2023-06-14T03:55:09;5.30;;;2.10;;
80625;SDS011;69982;51.758;5.784;2023-06-14T03:57:42;5.80;;;2.10;;
80625;SDS011;69982;51.758;5.784;2023-06-14T04:00:08;7.60;;;2.20;;
80625;SDS011;69982;51.758;5.784;2023-06-14T04:02:35;5.60;;;2.30;;
80625;SDS011;69982;51.758;5.784;2023-06-14T04:05:03;7.30;;;2.30;;
80625;SDS011;69982;51.758;5.784;2023-06-14T04:07:30;6.20;;;2.50;;
80625;SDS011;69982;51.758;5.784;2023-06-14T04:09:56;6.00;;;2.20;;
80625;SDS011;69982;51.758;5.784;2023-06-14T04:12:23;8.60;;;2.20;;
80625;SDS011;69982;51.758;5.784;2023-06-14T04:14:49;6.90;;;2.00;;
80625;SDS011;69982;51.758;5.784;2023-06-14T04:17:16;6.80;;;2.20;;
80625;SDS011;69982;51.758;5.784;2023-06-14T04:19:42;5.70;;;1.90;;
80625;SDS011;69982;51.758;5.784;2023-06-14T04:22:08;8.90;;;2.50;;
80625;SDS011;69982;51.758;5.784;2023-06-14T04:27:03;6.90;;;2.10;;
80625;SDS011;69982;51.758;5.784;2023-06-14T04:29:29;6.60;;;2.50;;
80625;SDS011;69982;51.758;5.784;2023-06-14T04:31:57;10.10;;;2.50;;
80625;SDS011;69982;51.758;5.784;2023-06-14T04:34:27;4.50;;;2.00;;
80625;SDS011;69982;51.758;5.784;2023-06-14T04:36:58;7.90;;;2.40;;
80625;SDS011;69982;51.758;5.784;2023-06-14T04:39:27;8.00;;;2.10;;
80625;SDS011;69982;51.758;5.784;2023-06-14T04:41:53;9.50;;;2.50;;
80625;SDS011;69982;51.758;5.784;2023-06-14T04:44:23;10.60;;;2.40;;
80625;SDS011;69982;51.758;5.784;2023-06-14T04:46:56;7.70;;;2.20;;
80625;SDS011;69982;51.758;5.784;2023-06-14T04:49:25;5.20;;;2.10;;
80625;SDS011;69982;51.758;5.784;2023-06-14T04:54:27;8.60;;;2.20;;
80625;SDS011;69982;51.758;5.784;2023-06-14T04:56:54;4.20;;;2.00;;
80625;SDS011;69982;51.758;5.784;2023-06-14T04:59:21;10.10;;;2.30;;
80625;SDS011;69982;51.758;5.784;2023-06-14T05:01:49;5.40;;;2.70;;
80625;SDS011;69982;51.758;5.784;2023-06-14T05:04:17;7.30;;;2.00;;
80625;SDS011;69982;51.758;5.784;2023-06-14T05:06:45;6.90;;;2.40;;
80625;SDS011;69982;51.758;5.784;2023-06-14T05:09:14;13.30;;;2.00;;
80625;SDS011;69982;51.758;5.784;2023-06-14T05:11:43;8.10;;;2.20;;
80625;SDS011;69982;51.758;5.784;2023-06-14T05:14:13;5.90;;;2.00;;
80625;SDS011;69982;51.758;5.784;2023-06-14T05:16:40;6.70;;;2.50;;
80625;SDS011;69982;51.758;5.784;2023-06-14T05:19:09;8.20;;;2.20;;
80625;SDS011;69982;51.758;5.784;2023-06-14T05:21:36;8.10;;;2.40;;
80625;SDS011;69982;51.758;5.784;2023-06-14T05:24:06;5.00;;;2.00;;
80625;SDS011;69982;51.758;5.784;2023-06-14T05:26:32;8.10;;;2.20;;
80625;SDS011;69982;51.758;5.784;2023-06-14T05:28:59;7.20;;;2.40;;
80625;SDS011;69982;51.758;5.784;2023-06-14T05:31:27;12.30;;;2.40;;
80625;SDS011;69982;51.758;5.784;2023-06-14T05:33:54;5.10;;;2.00;;
80625;SDS011;69982;51.758;5.784;2023-06-14T05:36:21;5.10;;;2.10;;
80625;SDS011;69982;51.758;5.784;2023-06-14T05:38:48;5.40;;;2.00;;
80625;SDS011;69982;51.758;5.784;2023-06-14T05:41:14;9.00;;;2.50;;
80625;SDS011;69982;51.758;5.784;2023-06-14T05:43:41;6.40;;;2.00;;
80625;SDS011;69982;51.758;5.784;2023-06-14T05:46:07;6.40;;;2.40;;
80625;SDS011;69982;51.758;5.784;2023-06-14T05:48:34;7.10;;;1.80;;
80625;SDS011;69982;51.758;5.784;2023-06-14T05:51:00;9.10;;;2.40;;
80625;SDS011;69982;51.758;5.784;2023-06-14T05:53:27;5.80;;;2.00;;
80625;SDS011;69982;51.758;5.784;2023-06-14T05:55:54;8.60;;;2.70;;
80625;SDS011;69982;51.758;5.784;2023-06-14T05:58:21;5.60;;;2.20;;
80625;SDS011;69982;51.758;5.784;2023-06-14T06:00:48;6.70;;;2.10;;
80625;SDS011;69982;51.758;5.784;2023-06-14T06:03:14;6.20;;;2.10;;
80625;SDS011;69982;51.758;5.784;2023-06-14T06:05:41;6.30;;;2.20;;
80625;SDS011;69982;51.758;5.784;2023-06-14T06:08:07;5.50;;;2.10;;
80625;SDS011;69982;51.758;5.784;2023-06-14T06:10:34;6.50;;;2.70;;
80625;SDS011;69982;51.758;5.784;2023-06-14T06:13:00;11.10;;;2.60;;
80625;SDS011;69982;51.758;5.784;2023-06-14T06:15:26;5.70;;;2.10;;
80625;SDS011;69982;51.758;5.784;2023-06-14T06:17:53;7.00;;;2.20;;
80625;SDS011;69982;51.758;5.784;2023-06-14T06:20:22;7.40;;;2.20;;
80625;SDS011;69982;51.758;5.784;2023-06-14T06:22:54;9.90;;;2.50;;
80625;SDS011;69982;51.758;5.784;2023-06-14T06:25:20;5.00;;;2.10;;
80625;SDS011;69982;51.758;5.784;2023-06-14T06:27:48;7.60;;;2.40;;
80625;SDS011;69982;51.758;5.784;2023-06-14T06:30:15;6.10;;;2.00;;
80625;SDS011;69982;51.758;5.784;2023-06-14T06:32:42;6.70;;;2.00;;
80625;SDS011;69982;51.758;5.784;2023-06-14T06:35:08;7.30;;;2.30;;
80625;SDS011;69982;51.758;5.784;2023-06-14T06:37:37;5.70;;;2.10;;
80625;SDS011;69982;51.758;5.784;2023-06-14T06:40:03;7.90;;;2.40;;
80625;SDS011;69982;51.758;5.784;2023-06-14T06:42:32;5.20;;;2.30;;
80625;SDS011;69982;51.758;5.784;2023-06-14T06:44:58;11.90;;;2.40;;
80625;SDS011;69982;51.758;5.784;2023-06-14T06:47:24;8.00;;;2.40;;
80625;SDS011;69982;51.758;5.784;2023-06-14T06:49:51;5.20;;;2.10;;
80625;SDS011;69982;51.758;5.784;2023-06-14T06:52:17;8.30;;;2.50;;
80625;SDS011;69982;51.758;5.784;2023-06-14T06:54:44;7.40;;;2.40;;
80625;SDS011;69982;51.758;5.784;2023-06-14T06:57:11;6.50;;;1.80;;
80625;SDS011;69982;51.758;5.784;2023-06-14T06:59:37;5.60;;;2.10;;
80625;SDS011;69982;51.758;5.784;2023-06-14T07:02:04;10.60;;;2.60;;
80625;SDS011;69982;51.758;5.784;2023-06-14T07:04:31;7.30;;;2.20;;
80625;SDS011;69982;51.758;5.784;2023-06-14T07:06:57;6.90;;;2.10;;
80625;SDS011;69982;51.758;5.784;2023-06-14T07:09:24;6.30;;;2.00;;
80625;SDS011;69982;51.758;5.784;2023-06-14T07:11:50;4.90;;;2.10;;
80625;SDS011;69982;51.758;5.784;2023-06-14T07:14:17;5.00;;;1.80;;
80625;SDS011;69982;51.758;5.784;2023-06-14T07:16:49;3.90;;;1.40;;
80625;SDS011;69982;51.758;5.784;2023-06-14T07:19:15;5.50;;;2.30;;
80625;SDS011;69982;51.758;5.784;2023-06-14T07:21:41;4.40;;;1.80;;
80625;SDS011;69982;51.758;5.784;2023-06-14T07:24:09;5.30;;;2.00;;
80625;SDS011;69982;51.758;5.784;2023-06-14T07:26:35;4.20;;;1.80;;
80625;SDS011;69982;51.758;5.784;2023-06-14T07:29:02;6.60;;;2.20;;
80625;SDS011;69982;51.758;5.784;2023-06-14T07:31:28;7.90;;;1.90;;
80625;SDS011;69982;51.758;5.784;2023-06-14T07:33:55;7.50;;;2.40;;
80625;SDS011;69982;51.758;5.784;2023-06-14T07:36:21;4.50;;;1.90;;
80625;SDS011;69982;51.758;5.784;2023-06-14T07:38:48;6.00;;;1.60;;
80625;SDS011;69982;51.758;5.784;2023-06-14T07:41:14;5.30;;;1.40;;
80625;SDS011;69982;51.758;5.784;2023-06-14T07:43:41;4.50;;;1.70;;
80625;SDS011;69982;51.758;5.784;2023-06-14T07:46:08;4.00;;;1.20;;
80625;SDS011;69982;51.758;5.784;2023-06-14T07:48:35;6.90;;;1.40;;
80625;SDS011;69982;51.758;5.784;2023-06-14T07:51:02;5.80;;;1.50;;
80625;SDS011;69982;51.758;5.784;2023-06-14T07:53:28;5.60;;;1.70;;
80625;SDS011;69982;51.758;5.784;2023-06-14T07:55:55;7.10;;;1.40;;
80625;SDS011;69982;51.758;5.784;2023-06-14T07:58:22;5.50;;;1.20;;
80625;SDS011;69982;51.758;5.784;2023-06-14T08:00:48;5.30;;;1.60;;
80625;SDS011;69982;51.758;5.784;2023-06-14T08:03:15;6.40;;;1.20;;
80625;SDS011;69982;51.758;5.784;2023-06-14T08:05:42;5.40;;;1.40;;
80625;SDS011;69982;51.758;5.784;2023-06-14T08:08:08;5.30;;;1.20;;
80625;SDS011;69982;51.758;5.784;2023-06-14T08:10:35;4.40;;;1.10;;
80625;SDS011;69982;51.758;5.784;2023-06-14T08:13:01;3.50;;;0.70;;
80625;SDS011;69982;51.758;5.784;2023-06-14T08:15:28;5.20;;;0.80;;
80625;SDS011;69982;51.758;5.784;2023-06-14T08:17:54;3.70;;;1.00;;
80625;SDS011;69982;51.758;5.784;2023-06-14T08:20:21;4.30;;;0.70;;
80625;SDS011;69982;51.758;5.784;2023-06-14T08:22:47;2.80;;;0.90;;
80625;SDS011;69982;51.758;5.784;2023-06-14T08:25:14;3.10;;;0.90;;
80625;SDS011;69982;51.758;5.784;2023-06-14T08:27:41;4.10;;;0.60;;
80625;SDS011;69982;51.758;5.784;2023-06-14T08:30:08;2.60;;;0.70;;
80625;SDS011;69982;51.758;5.784;2023-06-14T08:32:35;2.20;;;0.60;;
80625;SDS011;69982;51.758;5.784;2023-06-14T08:35:01;2.60;;;0.50;;
80625;SDS011;69982;51.758;5.784;2023-06-14T08:37:31;2.90;;;0.70;;
80625;SDS011;69982;51.758;5.784;2023-06-14T08:39:59;6.00;;;0.80;;
80625;SDS011;69982;51.758;5.784;2023-06-14T08:42:25;3.00;;;0.80;;
80625;SDS011;69982;51.758;5.784;2023-06-14T08:44:57;3.40;;;0.70;;
80625;SDS011;69982;51.758;5.784;2023-06-14T08:47:23;2.80;;;0.80;;
80625;SDS011;69982;51.758;5.784;2023-06-14T08:49:52;2.80;;;0.90;;
80625;SDS011;69982;51.758;5.784;2023-06-14T08:52:21;3.30;;;0.70;;
80625;SDS011;69982;51.758;5.784;2023-06-14T08:54:49;3.60;;;0.90;;
80625;SDS011;69982;51.758;5.784;2023-06-14T08:57:17;3.40;;;0.80;;
80625;SDS011;69982;51.758;5.784;2023-06-14T09:02:19;4.70;;;0.80;;
80625;SDS011;69982;51.758;5.784;2023-06-14T09:04:48;3.40;;;1.10;;
80625;SDS011;69982;51.758;5.784;2023-06-14T09:07:15;3.20;;;1.00;;
80625;SDS011;69982;51.758;5.784;2023-06-14T09:09:42;4.40;;;1.10;;
80625;SDS011;69982;51.758;5.784;2023-06-14T09:12:13;4.40;;;1.20;;
80625;SDS011;69982;51.758;5.784;2023-06-14T09:14:39;4.80;;;1.10;;
80625;SDS011;69982;51.758;5.784;2023-06-14T09:17:08;6.90;;;0.90;;
80625;SDS011;69982;51.758;5.784;2023-06-14T09:19:34;2.70;;;1.00;;
80625;SDS011;69982;51.758;5.784;2023-06-14T09:22:03;4.10;;;0.80;;
80625;SDS011;69982;51.758;5.784;2023-06-14T09:24:30;4.70;;;0.90;;
80625;SDS011;69982;51.758;5.784;2023-06-14T09:26:56;3.00;;;0.90;;
80625;SDS011;69982;51.758;5.784;2023-06-14T09:29:23;3.00;;;0.90;;
80625;SDS011;69982;51.758;5.784;2023-06-14T09:31:50;4.40;;;1.00;;
80625;SDS011;69982;51.758;5.784;2023-06-14T09:34:16;3.30;;;0.80;;
80625;SDS011;69982;51.758;5.784;2023-06-14T09:36:45;5.40;;;0.90;;
80625;SDS011;69982;51.758;5.784;2023-06-14T09:39:11;4.40;;;0.90;;
80625;SDS011;69982;51.758;5.784;2023-06-14T09:41:45;3.20;;;1.00;;
80625;SDS011;69982;51.758;5.784;2023-06-14T09:44:11;3.00;;;1.00;;
80625;SDS011;69982;51.758;5.784;2023-06-14T09:46:43;3.60;;;1.10;;
80625;SDS011;69982;51.758;5.784;2023-06-14T09:49:10;4.10;;;1.00;;
80625;SDS011;69982;51.758;5.784;2023-06-14T09:51:37;4.80;;;1.10;;
80625;SDS011;69982;51.758;5.784;2023-06-14T09:54:11;3.10;;;0.90;;
80625;SDS011;69982;51.758;5.784;2023-06-14T09:56:44;6.40;;;0.90;;
80625;SDS011;69982;51.758;5.784;2023-06-14T09:59:12;4.50;;;1.00;;
80625;SDS011;69982;51.758;5.784;2023-06-14T10:01:42;2.40;;;0.80;;
80625;SDS011;69982;51.758;5.784;2023-06-14T10:04:09;4.80;;;1.10;;
80625;SDS011;69982;51.758;5.784;2023-06-14T10:06:38;3.50;;;0.90;;
80625;SDS011;69982;51.758;5.784;2023-06-14T10:09:08;3.80;;;0.90;;
80625;SDS011;69982;51.758;5.784;2023-06-14T10:11:36;4.00;;;0.80;;
80625;SDS011;69982;51.758;5.784;2023-06-14T10:14:05;2.80;;;1.10;;
80625;SDS011;69982;51.758;5.784;2023-06-14T10:16:33;3.30;;;0.90;;
80625;SDS011;69982;51.758;5.784;2023-06-14T10:19:18;2.90;;;0.90;;
80625;SDS011;69982;51.758;5.784;2023-06-14T10:24:25;3.60;;;0.70;;
80625;SDS011;69982;51.758;5.784;2023-06-14T10:26:59;3.20;;;1.00;;
80625;SDS011;69982;51.758;5.784;2023-06-14T10:29:27;4.60;;;1.10;;
80625;SDS011;69982;51.758;5.784;2023-06-14T10:31:58;6.40;;;0.90;;
80625;SDS011;69982;51.758;5.784;2023-06-14T10:34:27;3.10;;;0.90;;
80625;SDS011;69982;51.758;5.784;2023-06-14T10:37:02;4.30;;;0.90;;
80625;SDS011;69982;51.758;5.784;2023-06-14T10:39:31;6.40;;;0.90;;
80625;SDS011;69982;51.758;5.784;2023-06-14T10:41:58;3.40;;;0.80;;
80625;SDS011;69982;51.758;5.784;2023-06-14T10:46:54;4.00;;;0.80;;
80625;SDS011;69982;51.758;5.784;2023-06-14T10:49:39;2.70;;;0.70;;
80625;SDS011;69982;51.758;5.784;2023-06-14T10:52:12;6.40;;;1.00;;
80625;SDS011;69982;51.758;5.784;2023-06-14T10:57:53;3.40;;;0.60;;
80625;SDS011;69982;51.758;5.784;2023-06-14T11:00:28;3.90;;;1.10;;
80625;SDS011;69982;51.758;5.784;2023-06-14T11:03:09;3.70;;;0.80;;
80625;SDS011;69982;51.758;5.784;2023-06-14T11:05:54;4.20;;;0.90;;
80625;SDS011;69982;51.758;5.784;2023-06-14T11:11:00;3.60;;;0.90;;
80625;SDS011;69982;51.758;5.784;2023-06-14T11:13:28;3.90;;;0.70;;
80625;SDS011;69982;51.758;5.784;2023-06-14T11:15:56;2.70;;;0.70;;
80625;SDS011;69982;51.758;5.784;2023-06-14T11:18:24;3.10;;;0.80;;
80625;SDS011;69982;51.758;5.784;2023-06-14T11:20:50;4.20;;;0.90;;
80625;SDS011;69982;51.758;5.784;2023-06-14T11:23:17;2.90;;;0.70;;
80625;SDS011;69982;51.758;5.784;2023-06-14T11:25:43;4.30;;;0.90;;
80625;SDS011;69982;51.758;5.784;2023-06-14T11:28:15;4.90;;;1.20;;
80625;SDS011;69982;51.758;5.784;2023-06-14T11:30:41;2.90;;;0.80;;
80625;SDS011;69982;51.758;5.784;2023-06-14T11:33:09;4.70;;;0.90;;
80625;SDS011;69982;51.758;5.784;2023-06-14T11:35:37;3.10;;;1.00;;
80625;SDS011;69982;51.758;5.784;2023-06-14T11:38:03;3.20;;;1.00;;
80625;SDS011;69982;51.758;5.784;2023-06-14T11:40:30;3.60;;;0.80;;
80625;SDS011;69982;51.758;5.784;2023-06-14T11:43:00;2.70;;;0.80;;
80625;SDS011;69982;51.758;5.784;2023-06-14T11:45:27;2.30;;;0.80;;
80625;SDS011;69982;51.758;5.784;2023-06-14T11:47:58;2.60;;;0.70;;
80625;SDS011;69982;51.758;5.784;2023-06-14T11:50:25;3.00;;;1.00;;
80625;SDS011;69982;51.758;5.784;2023-06-14T11:52:55;3.10;;;0.70;;
80625;SDS011;69982;51.758;5.784;2023-06-14T11:55:23;2.50;;;0.90;;
80625;SDS011;69982;51.758;5.784;2023-06-14T11:57:50;3.80;;;1.00;;
80625;SDS011;69982;51.758;5.784;2023-06-14T12:00:17;3.40;;;1.00;;
80625;SDS011;69982;51.758;5.784;2023-06-14T12:02:51;3.20;;;0.80;;
80625;SDS011;69982;51.758;5.784;2023-06-14T12:05:20;5.30;;;1.00;;
80625;SDS011;69982;51.758;5.784;2023-06-14T12:07:47;3.30;;;0.80;;
80625;SDS011;69982;51.758;5.784;2023-06-14T12:10:14;3.70;;;1.00;;
80625;SDS011;69982;51.758;5.784;2023-06-14T12:12:41;4.30;;;0.80;;
80625;SDS011;69982;51.758;5.784;2023-06-14T12:15:09;3.10;;;0.90;;
80625;SDS011;69982;51.758;5.784;2023-06-14T12:17:38;2.80;;;0.90;;
80625;SDS011;69982;51.758;5.784;2023-06-14T12:20:08;3.60;;;0.90;;
80625;SDS011;69982;51.758;5.784;2023-06-14T12:22:37;3.60;;;0.90;;
80625;SDS011;69982;51.758;5.784;2023-06-14T12:25:04;3.10;;;0.60;;
80625;SDS011;69982;51.758;5.784;2023-06-14T12:27:31;4.20;;;1.00;;
80625;SDS011;69982;51.758;5.784;2023-06-14T12:30:00;2.30;;;0.60;;
80625;SDS011;69982;51.758;5.784;2023-06-14T12:32:27;2.40;;;0.70;;
80625;SDS011;69982;51.758;5.784;2023-06-14T12:34:54;2.50;;;0.90;;
80625;SDS011;69982;51.758;5.784;2023-06-14T12:37:20;2.80;;;0.80;;
80625;SDS011;69982;51.758;5.784;2023-06-14T12:39:47;2.40;;;0.60;;
80625;SDS011;69982;51.758;5.784;2023-06-14T12:42:14;4.20;;;0.80;;
80625;SDS011;69982;51.758;5.784;2023-06-14T12:44:41;2.70;;;0.60;;
80625;SDS011;69982;51.758;5.784;2023-06-14T12:47:08;3.30;;;0.80;;
80625;SDS011;69982;51.758;5.784;2023-06-14T12:49:35;2.30;;;0.70;;
80625;SDS011;69982;51.758;5.784;2023-06-14T12:52:01;5.90;;;0.70;;
80625;SDS011;69982;51.758;5.784;2023-06-14T12:54:27;3.70;;;0.90;;
80625;SDS011;69982;51.758;5.784;2023-06-14T12:56:57;3.30;;;0.80;;
80625;SDS011;69982;51.758;5.784;2023-06-14T12:59:24;3.10;;;0.70;;
80625;SDS011;69982;51.758;5.784;2023-06-14T13:01:51;8.10;;;0.80;;
80625;SDS011;69982;51.758;5.784;2023-06-14T13:04:20;6.80;;;1.10;;
80625;SDS011;69982;51.758;5.784;2023-06-14T13:06:46;3.70;;;0.60;;
80625;SDS011;69982;51.758;5.784;2023-06-14T13:09:14;4.20;;;0.80;;
80625;SDS011;69982;51.758;5.784;2023-06-14T13:11:41;2.10;;;0.60;;
80625;SDS011;69982;51.758;5.784;2023-06-14T13:14:12;4.10;;;0.70;;
80625;SDS011;69982;51.758;5.784;2023-06-14T13:16:41;4.10;;;0.80;;
80625;SDS011;69982;51.758;5.784;2023-06-14T13:19:07;4.90;;;0.70;;
80625;SDS011;69982;51.758;5.784;2023-06-14T13:21:34;2.20;;;0.70;;
80625;SDS011;69982;51.758;5.784;2023-06-14T13:24:00;3.20;;;0.50;;
80625;SDS011;69982;51.758;5.784;2023-06-14T13:26:27;3.20;;;0.50;;
80625;SDS011;69982;51.758;5.784;2023-06-14T13:28:53;3.70;;;0.60;;
80625;SDS011;69982;51.758;5.784;2023-06-14T13:31:20;2.50;;;0.60;;
80625;SDS011;69982;51.758;5.784;2023-06-14T13:33:46;2.30;;;0.40;;
80625;SDS011;69982;51.758;5.784;2023-06-14T13:36:12;5.60;;;0.50;;
80625;SDS011;69982;51.758;5.784;2023-06-14T13:38:39;2.70;;;0.50;;
80625;SDS011;69982;51.758;5.784;2023-06-14T13:41:05;4.10;;;0.70;;
80625;SDS011;69982;51.758;5.784;2023-06-14T13:43:32;5.10;;;0.60;;
80625;SDS011;69982;51.758;5.784;2023-06-14T13:45:58;2.20;;;0.70;;
80625;SDS011;69982;51.758;5.784;2023-06-14T13:48:25;2.90;;;0.40;;
80625;SDS011;69982;51.758;5.784;2023-06-14T13:50:52;3.10;;;0.60;;
80625;SDS011;69982;51.758;5.784;2023-06-14T13:55:46;1.90;;;0.40;;
80625;SDS011;69982;51.758;5.784;2023-06-14T13:58:13;3.30;;;0.50;;
80625;SDS011;69982;51.758;5.784;2023-06-14T14:00:41;3.50;;;0.70;;
80625;SDS011;69982;51.758;5.784;2023-06-14T14:03:07;2.80;;;0.70;;
80625;SDS011;69982;51.758;5.784;2023-06-14T14:05:38;2.90;;;0.50;;
80625;SDS011;69982;51.758;5.784;2023-06-14T14:08:05;3.40;;;0.50;;
80625;SDS011;69982;51.758;5.784;2023-06-14T14:10:32;3.80;;;0.40;;
80625;SDS011;69982;51.758;5.784;2023-06-14T14:12:59;2.40;;;0.50;;
80625;SDS011;69982;51.758;5.784;2023-06-14T14:15:25;4.80;;;0.50;;
80625;SDS011;69982;51.758;5.784;2023-06-14T14:17:52;2.30;;;0.50;;
80625;SDS011;69982;51.758;5.784;2023-06-14T14:20:20;3.00;;;0.70;;
80625;SDS011;69982;51.758;5.784;2023-06-14T14:22:47;4.10;;;0.90;;
80625;SDS011;69982;51.758;5.784;2023-06-14T14:25:13;2.50;;;0.60;;
80625;SDS011;69982;51.758;5.784;2023-06-14T14:27:47;2.80;;;0.50;;
80625;SDS011;69982;51.758;5.784;2023-06-14T14:30:16;2.20;;;0.50;;
80625;SDS011;69982;51.758;5.784;2023-06-14T14:32:43;2.70;;;0.40;;
80625;SDS011;69982;51.758;5.784;2023-06-14T14:35:10;3.50;;;0.50;;
80625;SDS011;69982;51.758;5.784;2023-06-14T14:37:38;2.10;;;0.40;;
80625;SDS011;69982;51.758;5.784;2023-06-14T14:40:04;2.50;;;0.40;;
80625;SDS011;69982;51.758;5.784;2023-06-14T14:42:32;2.90;;;0.70;;
80625;SDS011;69982;51.758;5.784;2023-06-14T14:44:58;3.70;;;0.70;;
80625;SDS011;69982;51.758;5.784;2023-06-14T14:47:25;3.50;;;0.60;;
80625;SDS011;69982;51.758;5.784;2023-06-14T14:49:52;3.80;;;0.90;;
80625;SDS011;69982;51.758;5.784;2023-06-14T14:52:18;1.70;;;0.50;;
80625;SDS011;69982;51.758;5.784;2023-06-14T14:54:48;2.30;;;0.40;;
80625;SDS011;69982;51.758;5.784;2023-06-14T14:57:16;3.30;;;0.50;;
80625;SDS011;69982;51.758;5.784;2023-06-14T14:59:42;2.90;;;0.50;;
80625;SDS011;69982;51.758;5.784;2023-06-14T15:02:09;2.60;;;0.60;;
80625;SDS011;69982;51.758;5.784;2023-06-14T15:04:36;2.20;;;0.30;;
80625;SDS011;69982;51.758;5.784;2023-06-14T15:07:03;4.90;;;0.70;;
80625;SDS011;69982;51.758;5.784;2023-06-14T15:09:29;4.90;;;0.50;;
80625;SDS011;69982;51.758;5.784;2023-06-14T15:11:56;3.40;;;0.60;;
80625;SDS011;69982;51.758;5.784;2023-06-14T15:14:23;4.10;;;0.60;;
80625;SDS011;69982;51.758;5.784;2023-06-14T15:16:49;2.40;;;0.60;;